createdAt,value
2022-08-31T00:03:00.358Z,25.00
2022-08-31T00:05:49.247Z,21.00
2022-08-31T00:08:32.510Z,18.95
2022-08-31T00:11:22.077Z,26.17
2022-08-31T00:14:14.982Z,27.30
2022-08-31T00:17:04.316Z,23.10
2022-08-31T00:19:46.523Z,19.77
2022-08-31T00:22:35.327Z,24.92
2022-08-31T00:25:18.387Z,28.45
2022-08-31T00:28:07.330Z,24.08
2022-08-31T00:30:50.439Z,29.48
2022-08-31T00:33:39.087Z,22.65
2022-08-31T00:36:22.706Z,23.65
2022-08-31T00:41:55.520Z,23.60
2022-08-31T00:44:44.049Z,30.30
2022-08-31T00:47:26.321Z,25.48
2022-08-31T00:50:18.228Z,25.02
2022-08-31T00:53:07.280Z,24.65
2022-08-31T00:55:56.072Z,23.98
2022-08-31T00:58:39.391Z,21.80
2022-08-31T01:01:29.675Z,28.67
2022-08-31T01:04:12.616Z,25.60
2022-08-31T01:07:01.336Z,27.27
2022-08-31T01:09:55.723Z,29.00
2022-08-31T01:12:45.478Z,26.98
2022-08-31T01:15:36.234Z,31.65
2022-08-31T01:18:25.988Z,22.95
2022-08-31T01:21:20.630Z,28.65
2022-08-31T01:24:07.318Z,23.60
2022-08-31T01:26:55.880Z,29.35
2022-08-31T01:29:40.348Z,26.85
2022-08-31T01:32:29.348Z,31.27
2022-08-31T01:35:12.645Z,26.70
2022-08-31T01:38:01.993Z,28.27
2022-08-31T01:41:01.022Z,26.58
2022-08-31T01:43:50.420Z,26.95
2022-08-31T01:46:33.194Z,30.30
2022-08-31T01:49:17.657Z,35.70
2022-08-31T01:52:07.122Z,30.88
2022-08-31T01:54:49.426Z,32.88
2022-08-31T01:57:38.334Z,30.83
2022-08-31T02:00:41.161Z,38.10
2022-08-31T02:03:30.063Z,42.72
2022-08-31T02:06:21.001Z,40.60
2022-08-31T02:09:11.085Z,39.55
2022-08-31T02:12:00.628Z,46.55
2022-08-31T02:14:55.126Z,52.60
2022-08-31T02:17:52.681Z,43.63
2022-08-31T02:20:41.331Z,48.97
2022-08-31T02:23:25.366Z,45.58
2022-08-31T02:26:14.411Z,51.03
2022-08-31T02:28:56.615Z,43.75
2022-08-31T02:31:45.107Z,49.05
2022-08-31T02:34:34.981Z,46.38
2022-08-31T02:37:25.622Z,58.25
2022-08-31T02:40:16.015Z,56.17
2022-08-31T02:43:05.338Z,53.15
2022-08-31T02:45:50.990Z,48.53
2022-08-31T02:48:48.233Z,45.42
2022-08-31T02:51:37.242Z,50.42
2022-08-31T02:54:26.653Z,45.63
2022-08-31T02:57:09.967Z,41.25
2022-08-31T02:59:51.415Z,48.08
2022-08-31T03:02:42.055Z,44.50
2022-08-31T03:05:24.860Z,43.42
2022-08-31T03:08:13.076Z,44.58
2022-08-31T03:11:05.035Z,40.05
2022-08-31T03:13:58.423Z,44.13
2022-08-31T03:16:54.993Z,40.20
2022-08-31T03:19:50.222Z,41.55
2022-08-31T03:22:39.523Z,35.80
2022-08-31T03:25:25.063Z,40.50
2022-08-31T03:28:08.897Z,49.45
2022-08-31T03:31:12.379Z,33.58
2022-08-31T03:33:55.045Z,35.97
2022-08-31T03:36:43.983Z,27.90
2022-08-31T03:39:40.356Z,26.27
2022-08-31T03:42:29.401Z,31.67
2022-08-31T03:45:19.635Z,33.05
2022-08-31T03:48:12.554Z,31.73
2022-08-31T03:50:55.602Z,32.42
2022-08-31T03:53:48.072Z,33.88
2022-08-31T03:56:30.404Z,37.22
2022-08-31T03:59:22.064Z,35.33
2022-08-31T04:02:46.640Z,33.78
2022-08-31T04:05:49.362Z,30.70
2022-08-31T04:08:37.445Z,32.47
2022-08-31T04:11:51.841Z,30.05
2022-08-31T04:14:58.983Z,23.30
2022-08-31T04:18:13.312Z,33.60
2022-08-31T04:21:03.380Z,25.30
2022-08-31T04:23:47.951Z,23.48
2022-08-31T04:26:40.324Z,28.40
2022-08-31T04:29:22.674Z,22.88
2022-08-31T04:32:11.065Z,23.98
2022-08-31T04:34:56.667Z,22.83
2022-08-31T04:37:49.239Z,22.73
2022-08-31T04:40:39.363Z,27.50
2022-08-31T04:43:24.130Z,36.60
2022-08-31T04:46:13.012Z,31.52
2022-08-31T04:49:01.620Z,32.42
2022-08-31T04:51:46.333Z,23.80
2022-08-31T04:54:34.605Z,37.65
2022-08-31T04:57:17.230Z,29.85
2022-08-31T05:00:09.344Z,25.17
2022-08-31T05:03:11.703Z,34.03
2022-08-31T05:06:01.248Z,31.85
2022-08-31T05:08:43.402Z,32.00
2022-08-31T05:11:33.251Z,24.75
2022-08-31T05:14:16.652Z,29.92
2022-08-31T05:17:15.342Z,24.73
2022-08-31T05:19:59.400Z,21.38
2022-08-31T05:22:48.071Z,28.38
2022-08-31T05:25:30.802Z,24.52
2022-08-31T05:28:19.292Z,20.80
2022-08-31T05:31:09.138Z,20.95
2022-08-31T05:34:00.075Z,16.02
2022-08-31T05:36:46.513Z,18.17
2022-08-31T05:39:35.235Z,18.05
2022-08-31T05:42:20.742Z,16.25
2022-08-31T05:45:10.063Z,13.38
2022-08-31T05:47:53.551Z,18.05
2022-08-31T05:50:42.136Z,17.00
2022-08-31T05:53:24.649Z,15.40
2022-08-31T05:56:19.187Z,19.27
2022-08-31T05:59:11.276Z,24.83
2022-08-31T06:01:53.586Z,22.60
2022-08-31T06:04:45.292Z,25.15
2022-08-31T06:07:35.351Z,18.55
2022-08-31T06:10:22.034Z,22.10
2022-08-31T06:13:06.193Z,21.17
2022-08-31T06:15:56.211Z,25.13
2022-08-31T06:18:39.727Z,17.85
2022-08-31T06:21:49.673Z,26.05
2022-08-31T06:24:48.074Z,24.35
2022-08-31T06:27:37.337Z,20.27
2022-08-31T06:30:23.163Z,22.23
2022-08-31T06:33:12.332Z,17.58
2022-08-31T06:36:06.332Z,18.92
2022-08-31T06:39:11.338Z,18.27
2022-08-31T06:41:59.382Z,18.80
2022-08-31T06:45:06.239Z,26.15
2022-08-31T06:48:08.071Z,16.48
2022-08-31T06:51:05.024Z,17.85
2022-08-31T06:53:56.236Z,16.67
2022-08-31T06:56:59.901Z,17.45
2022-08-31T07:00:15.013Z,25.15
2022-08-31T07:03:33.879Z,18.42
2022-08-31T07:06:29.278Z,18.83
2022-08-31T07:09:14.810Z,24.65
2022-08-31T07:12:05.365Z,20.13
2022-08-31T07:14:54.971Z,15.05
2022-08-31T07:17:38.125Z,17.20
2022-08-31T07:20:20.652Z,14.10
2022-08-31T07:23:15.191Z,17.92
2022-08-31T07:26:14.301Z,22.15
2022-08-31T07:29:04.113Z,14.57
2022-08-31T07:31:54.055Z,16.52
2022-08-31T07:34:39.450Z,16.20
2022-08-31T07:38:06.149Z,10.65
2022-08-31T07:41:08.211Z,22.30
2022-08-31T07:43:57.294Z,17.98
2022-08-31T07:46:46.390Z,19.30
2022-08-31T07:49:38.284Z,24.33
2022-08-31T07:52:41.272Z,18.17
2022-08-31T07:55:42.758Z,13.35
2022-08-31T07:58:48.264Z,13.93
2022-08-31T08:01:36.030Z,17.13
2022-08-31T08:04:33.389Z,14.30
2022-08-31T08:07:34.729Z,8.95
2022-08-31T08:10:35.667Z,14.40
2022-08-31T08:13:36.729Z,16.70
2022-08-31T08:16:35.313Z,15.05
2022-08-31T08:19:50.378Z,18.88
2022-08-31T08:22:51.599Z,11.73
2022-08-31T08:25:54.259Z,19.80
2022-08-31T08:28:57.427Z,19.00
2022-08-31T08:31:46.068Z,17.92
2022-08-31T08:34:35.870Z,17.92
2022-08-31T08:37:40.999Z,21.00
2022-08-31T08:40:43.451Z,14.25
2022-08-31T08:43:36.963Z,14.95
2022-08-31T08:47:37.691Z,14.63
2022-08-31T08:49:43.108Z,17.17
2022-08-31T08:52:38.604Z,15.48
2022-08-31T08:55:25.093Z,13.50
2022-08-31T08:58:18.094Z,17.60
2022-08-31T09:01:05.112Z,15.48
2022-08-31T09:04:29.225Z,14.50
2022-08-31T09:07:37.955Z,13.00
2022-08-31T09:10:40.327Z,11.55
2022-08-31T09:14:20.201Z,24.63
2022-08-31T09:17:31.969Z,21.50
2022-08-31T09:20:23.986Z,26.52
2022-08-31T09:23:19.072Z,22.92
2022-08-31T09:26:13.970Z,26.50
2022-08-31T09:29:36.104Z,21.45
2022-08-31T09:32:26.456Z,25.80
2022-08-31T09:35:48.225Z,24.67
2022-08-31T09:38:37.664Z,25.33
2022-08-31T09:41:50.550Z,26.75
2022-08-31T09:44:42.594Z,30.35
2022-08-31T09:48:03.072Z,30.38
2022-08-31T09:50:52.974Z,30.45
2022-08-31T09:54:01.098Z,24.80
2022-08-31T09:57:15.218Z,31.02
2022-08-31T10:00:04.091Z,22.58
2022-08-31T10:02:54.051Z,26.42
2022-08-31T10:05:46.624Z,25.08
2022-08-31T10:09:01.357Z,32.05
2022-08-31T10:11:48.367Z,21.30
2022-08-31T10:14:49.350Z,28.77
2022-08-31T10:17:52.622Z,29.33
2022-08-31T10:20:40.080Z,19.38
2022-08-31T10:24:02.445Z,24.75
2022-08-31T10:27:08.929Z,23.63
2022-08-31T10:30:04.080Z,26.10
2022-08-31T10:33:13.176Z,23.52
2022-08-31T10:36:06.356Z,24.88
2022-08-31T10:38:57.010Z,22.92
2022-08-31T10:41:44.999Z,21.33
2022-08-31T10:45:00.367Z,22.83
2022-08-31T10:47:50.223Z,20.40
2022-08-31T10:50:53.332Z,21.58
2022-08-31T10:53:53.692Z,24.42
2022-08-31T10:56:48.994Z,19.08
2022-08-31T11:00:02.520Z,23.05
2022-08-31T11:03:24.268Z,21.10
2022-08-31T11:06:35.970Z,19.20
2022-08-31T11:09:26.622Z,27.55
2022-08-31T11:12:19.216Z,22.02
2022-08-31T11:15:14.110Z,21.10
2022-08-31T11:18:21.239Z,19.60
2022-08-31T11:21:28.293Z,20.10
2022-08-31T11:24:37.522Z,23.85
2022-08-31T11:27:41.085Z,19.48
2022-08-31T11:30:45.255Z,20.90
2022-08-31T11:33:44.396Z,17.40
2022-08-31T11:37:01.149Z,21.85
2022-08-31T11:39:53.347Z,14.27
2022-08-31T11:42:38.763Z,11.52
2022-08-31T11:45:45.283Z,10.90
2022-08-31T11:48:58.293Z,11.55
2022-08-31T11:51:50.320Z,14.40
2022-08-31T11:54:49.584Z,12.95
2022-08-31T11:58:03.811Z,14.90
2022-08-31T12:01:06.049Z,12.40
2022-08-31T12:04:04.062Z,11.83
2022-08-31T12:06:55.220Z,10.98
2022-08-31T12:09:47.062Z,10.35
2022-08-31T12:13:27.320Z,12.45
2022-08-31T12:16:35.218Z,13.27
2022-08-31T12:19:51.054Z,21.23
2022-08-31T12:23:30.248Z,21.75
2022-08-31T12:27:07.232Z,23.90
2022-08-31T12:30:06.176Z,19.40
2022-08-31T12:33:06.074Z,23.80
2022-08-31T12:35:50.392Z,22.15
2022-08-31T12:38:38.972Z,22.77
2022-08-31T12:41:25.334Z,21.40
2022-08-31T12:44:14.962Z,22.90
2022-08-31T12:47:13.594Z,25.30
2022-08-31T12:50:20.067Z,21.95
2022-08-31T12:53:20.348Z,23.83
2022-08-31T12:56:29.997Z,29.40
2022-08-31T12:59:21.646Z,23.35
2022-08-31T13:02:11.154Z,25.63
2022-08-31T13:04:55.375Z,30.10
2022-08-31T13:07:44.007Z,24.15
2022-08-31T13:10:52.323Z,33.65
2022-08-31T13:13:34.450Z,23.85
2022-08-31T13:16:24.318Z,25.90
2022-08-31T13:19:15.967Z,31.50
2022-08-31T13:22:09.274Z,25.45
2022-08-31T13:24:54.331Z,29.05
2022-08-31T13:27:46.366Z,32.28
2022-08-31T13:30:55.192Z,29.20
2022-08-31T13:33:55.989Z,29.20
2022-08-31T13:36:55.977Z,30.08
2022-08-31T13:39:55.158Z,26.30
2022-08-31T13:42:56.599Z,31.52
2022-08-31T13:45:51.177Z,22.20
2022-08-31T13:48:48.066Z,25.60
2022-08-31T13:54:50.360Z,25.80
2022-08-31T13:57:41.465Z,18.15
2022-08-31T14:00:43.325Z,20.48
2022-08-31T14:04:00.909Z,22.27
2022-08-31T14:06:45.064Z,18.88
2022-08-31T14:09:33.968Z,19.40
2022-08-31T14:12:22.951Z,17.90
2022-08-31T14:15:36.545Z,15.98
2022-08-31T14:18:34.102Z,16.23
2022-08-31T14:21:29.240Z,18.08
2022-08-31T14:24:14.165Z,16.65
2022-08-31T14:27:03.233Z,14.57
2022-08-31T14:29:45.540Z,19.92
2022-08-31T14:32:36.231Z,15.75
2022-08-31T14:35:25.107Z,15.07
2022-08-31T14:38:13.950Z,17.20
2022-08-31T14:41:03.031Z,20.88
2022-08-31T14:43:47.462Z,14.82
2022-08-31T14:46:37.997Z,14.20
2022-08-31T14:49:20.298Z,15.13
2022-08-31T14:52:11.979Z,18.42
2022-08-31T14:55:10.159Z,37.72
2022-08-31T14:58:13.073Z,28.88
2022-08-31T15:01:14.026Z,27.02
2022-08-31T15:04:05.183Z,18.23
2022-08-31T15:06:48.298Z,21.52
2022-08-31T15:09:30.665Z,30.23
2022-08-31T15:12:20.100Z,20.77
2022-08-31T15:15:12.299Z,23.77
2022-08-31T15:17:58.070Z,26.35
2022-08-31T15:20:50.085Z,24.92
2022-08-31T15:23:42.635Z,25.05
2022-08-31T15:26:31.313Z,18.08
2022-08-31T15:29:16.485Z,24.55
2022-08-31T15:32:06.003Z,25.65
2022-08-31T15:34:54.033Z,27.13
2022-08-31T15:37:43.111Z,17.70
2022-08-31T15:40:28.976Z,22.70
2022-08-31T15:43:23.278Z,21.20
2022-08-31T15:46:05.481Z,24.85
2022-08-31T15:48:54.036Z,24.17
2022-08-31T15:51:43.143Z,20.98
2022-08-31T15:54:29.071Z,20.80
2022-08-31T15:57:20.079Z,25.20
2022-08-31T16:00:15.061Z,26.05
2022-08-31T16:03:05.040Z,22.48
2022-08-31T16:05:47.308Z,29.85
2022-08-31T16:08:35.958Z,32.22
2022-08-31T16:11:19.339Z,28.90
2022-08-31T16:14:08.026Z,29.27
2022-08-31T16:16:53.489Z,22.20
2022-08-31T16:19:49.066Z,20.42
2022-08-31T16:22:43.877Z,22.48
2022-08-31T16:25:48.472Z,17.60
2022-08-31T16:28:38.035Z,21.65
2022-08-31T16:31:20.308Z,20.25
2022-08-31T16:34:09.013Z,27.58
2022-08-31T16:36:51.503Z,25.67
2022-08-31T16:39:40.051Z,26.60
2022-08-31T16:43:13.075Z,15.07
2022-08-31T16:45:56.297Z,27.73
2022-08-31T16:49:03.056Z,21.15
2022-08-31T16:51:48.526Z,26.65
2022-08-31T16:54:37.252Z,18.70
2022-08-31T16:57:26.270Z,17.33
2022-08-31T17:00:10.997Z,21.83
2022-08-31T17:02:59.992Z,28.33
2022-08-31T17:05:43.630Z,20.33
2022-08-31T17:08:32.071Z,20.17
2022-08-31T17:11:27.287Z,25.15
2022-08-31T17:14:12.036Z,23.48
2022-08-31T17:16:54.367Z,19.70
2022-08-31T17:19:43.058Z,23.85
2022-08-31T17:22:33.601Z,18.58
2022-08-31T17:25:15.385Z,14.50
2022-08-31T17:28:07.571Z,29.25
2022-08-31T17:30:49.372Z,20.05
2022-08-31T17:33:39.000Z,19.77
2022-08-31T17:36:28.061Z,22.45
2022-08-31T17:39:11.771Z,25.00
2022-08-31T17:42:02.056Z,25.75
2022-08-31T17:44:52.896Z,17.98
2022-08-31T17:47:34.978Z,22.20
2022-08-31T17:50:30.069Z,22.58
2022-08-31T17:53:12.230Z,24.00
2022-08-31T17:56:11.080Z,20.20
2022-08-31T17:58:56.169Z,20.17
2022-08-31T18:01:45.028Z,19.23
2022-08-31T18:04:35.736Z,15.02
2022-08-31T18:07:18.981Z,18.92
2022-08-31T18:10:08.061Z,15.75
2022-08-31T18:12:50.387Z,19.83
2022-08-31T18:15:39.073Z,20.50
2022-08-31T18:18:22.723Z,23.85
2022-08-31T18:21:15.103Z,16.90
2022-08-31T18:23:59.417Z,21.05
2022-08-31T18:26:57.069Z,18.42
2022-08-31T18:29:53.845Z,17.70
2022-08-31T18:32:47.337Z,18.45
2022-08-31T18:35:38.109Z,18.63
2022-08-31T18:38:20.428Z,17.00
2022-08-31T18:41:26.948Z,20.48
2022-08-31T18:44:34.448Z,16.60
2022-08-31T18:47:19.956Z,18.08
2022-08-31T18:50:09.532Z,20.42
2022-08-31T18:52:52.098Z,18.27
2022-08-31T18:55:34.550Z,20.90
2022-08-31T18:58:23.074Z,21.55
2022-08-31T19:01:14.047Z,17.45
2022-08-31T19:03:57.037Z,19.23
2022-08-31T19:06:47.632Z,13.00
2022-08-31T19:09:31.034Z,21.90
2022-08-31T19:12:24.636Z,14.85
2022-08-31T19:15:06.676Z,19.02
2022-08-31T19:17:56.939Z,18.67
2022-08-31T19:20:39.478Z,19.90
2022-08-31T19:23:28.254Z,20.10
2022-08-31T19:26:10.422Z,19.60
2022-08-31T19:29:04.946Z,12.18
2022-08-31T19:31:57.124Z,17.02
2022-08-31T19:34:51.029Z,13.40
2022-08-31T19:37:33.231Z,17.58
2022-08-31T19:40:25.303Z,18.30
2022-08-31T19:46:37.967Z,14.98
2022-08-31T19:49:27.036Z,16.92
2022-08-31T19:52:20.239Z,16.10
2022-08-31T19:55:09.721Z,15.73
2022-08-31T19:57:50.950Z,12.07
2022-08-31T20:00:39.402Z,23.10
2022-08-31T20:03:22.026Z,23.70
2022-08-31T20:08:57.932Z,15.07
2022-08-31T20:14:30.998Z,17.33
2022-08-31T20:17:20.884Z,20.95
2022-08-31T20:20:02.957Z,15.52
2022-08-31T20:22:54.817Z,19.25
2022-08-31T20:25:36.722Z,15.65
2022-08-31T20:28:35.898Z,18.17
2022-08-31T20:31:30.022Z,17.67
2022-08-31T20:34:20.411Z,17.10
2022-08-31T20:37:06.641Z,17.60
2022-08-31T20:39:54.335Z,22.85
2022-08-31T20:42:35.940Z,17.27
2022-08-31T20:45:25.314Z,25.47
2022-08-31T20:48:26.277Z,16.10
2022-08-31T20:51:21.122Z,21.33
2022-08-31T20:54:03.950Z,15.45
2022-08-31T20:56:53.545Z,25.92
2022-08-31T20:59:36.289Z,16.95
2022-08-31T21:02:20.433Z,17.67
2022-08-31T21:05:36.467Z,13.50
2022-08-31T21:08:19.203Z,17.30
2022-08-31T21:11:01.308Z,13.50
2022-08-31T21:13:51.952Z,15.57
2022-08-31T21:16:35.532Z,16.40
2022-08-31T21:19:29.948Z,22.83
2022-08-31T21:22:14.443Z,14.45
2022-08-31T21:25:08.198Z,12.77
2022-08-31T21:27:53.949Z,18.67
2022-08-31T21:30:49.730Z,15.73
2022-08-31T21:33:32.300Z,16.85
2022-08-31T21:36:36.939Z,15.90
2022-08-31T21:39:28.333Z,20.00
2022-08-31T21:42:11.224Z,19.08
2022-08-31T21:47:42.272Z,12.68
2022-08-31T21:50:30.343Z,16.05
2022-08-31T21:53:12.328Z,17.40
2022-08-31T21:55:54.930Z,16.35
2022-08-31T21:58:44.029Z,14.27
2022-08-31T22:01:34.395Z,20.80
2022-08-31T22:04:18.036Z,19.33
2022-08-31T22:07:00.968Z,13.52
2022-08-31T22:09:50.991Z,12.13
2022-08-31T22:12:40.284Z,14.65
2022-08-31T22:15:30.965Z,12.88
2022-08-31T22:18:59.237Z,11.25
2022-08-31T22:21:27.601Z,17.50
2022-08-31T22:24:27.053Z,17.92
2022-08-31T22:27:14.889Z,13.40
2022-08-31T22:30:04.285Z,17.33
2022-08-31T22:32:58.917Z,15.80
2022-08-31T22:35:48.039Z,13.43
2022-08-31T22:38:30.311Z,15.65
2022-08-31T22:41:20.357Z,13.55
2022-08-31T22:44:10.158Z,14.10
2022-08-31T22:46:59.458Z,18.23
2022-08-31T22:49:41.527Z,14.98
2022-08-31T22:52:30.269Z,18.27
2022-08-31T22:55:21.301Z,17.92
2022-08-31T22:58:10.315Z,14.48
2022-08-31T23:00:55.294Z,15.15
2022-08-31T23:03:44.316Z,13.25
2022-08-31T23:06:28.433Z,15.02
2022-08-31T23:09:19.026Z,14.73
2022-08-31T23:12:03.368Z,14.90
2022-08-31T23:14:52.062Z,17.65
2022-08-31T23:17:41.023Z,23.90
2022-08-31T23:20:24.970Z,20.27
2022-08-31T23:23:14.066Z,24.58
2022-08-31T23:26:09.781Z,18.40
2022-08-31T23:28:54.272Z,21.40
2022-08-31T23:31:52.254Z,15.57
2022-08-31T23:34:40.454Z,17.88
2022-08-31T23:37:23.362Z,12.40
2022-08-31T23:40:16.767Z,15.85
2022-08-31T23:42:58.291Z,20.80
2022-08-31T23:45:46.493Z,15.15
2022-08-31T23:48:30.290Z,16.77
2022-08-31T23:51:19.665Z,15.40
2022-08-31T23:54:05.279Z,20.33
2022-08-31T23:56:49.116Z,16.92
2022-08-31T23:59:39.290Z,14.60
